Time;durP1;ratioP1;P1;durP2;ratioP2;P2;SDS_P1;SDS_P2;PMS_P1;PMS_P2;Temp;Humidity;BMP_temperature;BMP_pressure;BME280_temperature;BME280_humidity;BME280_pressure;Samples;Min_cycle;Max_cycle;Signal;HPM_P1;HPM_P2
2022/03/22 00:02:10;;;;;;;19.48;11.90;;;;;;;6.37;82.25;103272.16;10150419;28;20429;-69
2022/03/22 00:07:08;;;;;;;17.35;11.23;;;;;;;6.32;83.96;103263.84;10145852;28;20060;-68
2022/03/22 00:12:05;;;;;;;20.10;13.73;;;;;;;6.22;87.88;103267.09;10143846;28;20428;-68
2022/03/22 00:17:03;;;;;;;20.73;12.10;;;;;;;6.19;86.44;103272.13;10147392;28;20046;-68
2022/03/22 00:22:20;;;;;;;20.75;12.98;;;;;;;6.14;86.04;103263.84;10134995;28;20550;-68
2022/03/22 00:27:16;;;;;;;19.63;11.88;;;;;;;6.08;85.58;103266.41;10142245;28;20137;-70
2022/03/22 00:32:13;;;;;;;22.30;12.27;;;;;;;6.05;89.40;103274.16;10147516;28;20078;-69
2022/03/22 00:37:15;;;;;;;20.85;11.38;;;;;;;6.01;84.09;103265.66;10149515;28;20101;-69
2022/03/22 00:42:12;;;;;;;16.48;11.30;;;;;;;5.92;89.30;103261.53;10148644;28;20563;-68
2022/03/22 00:47:09;;;;;;;18.88;11.70;;;;;;;5.91;90.19;103270.72;10148875;28;20082;-69
2022/03/22 00:52:05;;;;;;;16.90;11.32;;;;;;;5.86;85.55;103268.66;10148611;28;20050;-69
2022/03/22 00:57:02;;;;;;;20.95;11.75;;;;;;;5.80;87.08;103263.31;10148418;28;20129;-69
2022/03/22 01:01:58;;;;;;;18.98;11.52;;;;;;;5.76;88.95;103268.38;10145838;28;20104;-68
2022/03/22 01:06:55;;;;;;;17.88;11.20;;;;;;;5.78;88.94;103259.97;10143297;28;20113;-70
2022/03/22 01:11:51;;;;;;;17.30;10.68;;;;;;;5.74;87.11;103258.78;10147231;28;20058;-69
2022/03/22 01:16:48;;;;;;;20.02;11.18;;;;;;;5.73;87.17;103268.78;10148411;28;20081;-70
2022/03/22 01:21:44;;;;;;;18.13;10.68;;;;;;;5.67;89.35;103266.97;10124843;28;20492;-69
2022/03/22 01:26:41;;;;;;;18.73;11.05;;;;;;;5.59;89.96;103257.25;10146312;28;20062;-69
2022/03/22 01:31:37;;;;;;;20.10;12.05;;;;;;;5.53;90.48;103266.25;10149291;28;20117;-69
2022/03/22 01:36:34;;;;;;;19.50;11.48;;;;;;;5.51;90.80;103259.41;10145412;28;20038;-68
2022/03/22 01:41:30;;;;;;;16.05;10.55;;;;;;;5.44;91.54;103254.03;10147159;28;20743;-68
2022/03/22 01:46:28;;;;;;;17.67;9.80;;;;;;;5.43;87.81;103246.91;10148053;28;20054;-69
2022/03/22 01:51:24;;;;;;;16.05;10.55;;;;;;;5.46;87.40;103247.31;10148816;28;20051;-69
2022/03/22 01:56:20;;;;;;;16.45;10.48;;;;;;;5.45;87.61;103242.97;10145907;28;20074;-69
2022/03/22 02:06:35;;;;;;;19.08;11.18;;;;;;;5.36;93.16;103238.00;10140859;28;20487;-66
2022/03/22 02:11:32;;;;;;;16.67;10.68;;;;;;;5.33;92.47;103228.44;10147967;28;20133;-65
2022/03/22 02:16:28;;;;;;;19.40;11.15;;;;;;;5.28;92.85;103229.09;10150855;28;20125;-66
2022/03/22 02:21:30;;;;;;;19.40;11.15;;;;;;;5.28;90.24;103223.66;10151170;28;20042;-66
2022/03/22 02:26:27;;;;;;;20.38;10.95;;;;;;;5.22;91.47;103224.56;10138787;28;20053;-65
2022/03/22 02:31:25;;;;;;;16.20;10.32;;;;;;;5.16;91.59;103220.00;10149018;28;20046;-65
2022/03/22 02:36:22;;;;;;;16.73;10.77;;;;;;;5.16;93.16;103222.72;10152092;28;20047;-65
2022/03/22 02:41:20;;;;;;;18.33;10.90;;;;;;;5.11;94.34;103217.13;10149229;28;20048;-65
2022/03/22 02:46:17;;;;;;;21.02;11.30;;;;;;;5.11;97.10;103211.72;10146735;28;20051;-65
2022/03/22 02:51:14;;;;;;;18.70;11.30;;;;;;;5.06;96.36;103214.25;10151372;28;20125;-65
2022/03/22 02:56:11;;;;;;;18.27;11.73;;;;;;;5.02;98.82;103218.44;10150781;28;20508;-65
2022/03/22 03:01:07;;;;;;;20.23;11.30;;;;;;;4.94;97.96;103213.28;10150697;28;20054;-65
2022/03/22 03:06:06;;;;;;;19.60;11.13;;;;;;;4.94;96.38;103205.97;10150211;28;20149;-65
2022/03/22 03:11:03;;;;;;;19.50;10.77;;;;;;;4.90;96.60;103214.75;10149005;28;20463;-65
2022/03/22 03:15:59;;;;;;;20.50;11.60;;;;;;;4.85;100.00;103216.25;10151176;28;20508;-65
2022/03/22 03:20:56;;;;;;;16.70;11.30;;;;;;;4.85;100.00;103215.44;10124038;28;20076;-66
2022/03/22 03:25:53;;;;;;;20.67;10.85;;;;;;;4.82;98.21;103219.38;10150820;28;20046;-65
2022/03/22 03:30:50;;;;;;;17.45;11.02;;;;;;;4.79;97.94;103219.84;10149945;28;20053;-66
2022/03/22 03:35:46;;;;;;;18.38;11.27;;;;;;;4.76;100.00;103225.69;10129780;28;20050;-65
2022/03/22 03:51:13;;;;;;;20.98;11.85;;;;;;;4.68;100.00;103230.53;10148074;28;20096;-66
2022/03/22 03:56:10;;;;;;;18.20;11.15;;;;;;;4.69;100.00;103229.47;10147504;28;20081;-65
2022/03/22 04:01:08;;;;;;;20.60;12.15;;;;;;;4.59;100.00;103230.78;10149046;28;20050;-65
2022/03/22 04:06:05;;;;;;;18.55;11.20;;;;;;;4.59;100.00;103235.38;10147210;28;20060;-65
2022/03/22 04:11:01;;;;;;;22.25;11.27;;;;;;;4.51;97.89;103238.34;10149503;28;20129;-65
2022/03/22 04:15:58;;;;;;;19.77;11.23;;;;;;;4.52;100.00;103245.41;10148380;28;20412;-65
2022/03/22 04:20:55;;;;;;;19.33;11.65;;;;;;;4.48;100.00;103244.16;10148267;28;20046;-65
2022/03/22 04:25:51;;;;;;;20.15;11.27;;;;;;;4.40;100.00;103240.66;10148735;28;20135;-65
2022/03/22 04:36:04;;;;;;;19.75;11.90;;;;;;;4.32;100.00;103246.31;10148280;28;20460;-66
2022/03/22 04:41:01;;;;;;;23.30;12.20;;;;;;;4.29;100.00;103246.72;10161246;28;20535;-65
2022/03/22 04:45:57;;;;;;;19.50;11.95;;;;;;;4.18;100.00;103239.28;10149667;28;20049;-65
2022/03/22 04:56:43;;;;;;;19.20;11.43;;;;;;;4.21;100.00;103241.56;10152114;28;20052;-65
2022/03/22 05:01:26;;;;;;;21.58;12.18;;;;;;;4.28;100.00;103239.66;10150785;28;20583;-66
2022/03/22 05:06:25;;;;;;;21.90;12.73;;;;;;;4.31;100.00;103250.06;10137854;28;20053;-66
2022/03/22 05:11:22;;;;;;;17.83;11.40;;;;;;;4.23;100.00;103253.03;10150506;28;20085;-65
2022/03/22 05:16:19;;;;;;;22.40;12.05;;;;;;;4.15;100.00;103251.34;10149328;28;20145;-65
2022/03/22 05:21:15;;;;;;;18.42;11.15;;;;;;;4.11;100.00;103260.13;10127384;28;20118;-65
2022/03/22 05:26:13;;;;;;;21.23;11.82;;;;;;;4.12;100.00;103254.50;10148159;28;20057;-65
2022/03/22 05:31:12;;;;;;;16.65;10.73;;;;;;;4.19;97.51;103251.78;10139341;28;20145;-66
2022/03/22 05:36:09;;;;;;;17.00;12.13;;;;;;;4.27;98.79;103265.09;10131680;28;20077;-67
2022/03/22 05:41:07;;;;;;;20.45;11.60;;;;;;;4.27;97.65;103270.50;10131266;28;20717;-65
2022/03/22 05:46:04;;;;;;;19.88;11.48;;;;;;;4.21;100.00;103271.34;10145701;28;20677;-65
2022/03/22 05:51:00;;;;;;;20.92;12.52;;;;;;;4.16;100.00;103272.00;10151775;28;20077;-65
2022/03/22 05:55:57;;;;;;;22.15;12.23;;;;;;;4.25;100.00;103279.88;10159881;28;20408;-65
2022/03/22 06:00:55;;;;;;;20.38;11.95;;;;;;;4.26;100.00;103279.66;10157266;28;20104;-65
2022/03/22 06:05:52;;;;;;;18.80;11.43;;;;;;;4.35;100.00;103281.09;10155402;28;20551;-65
2022/03/22 06:10:49;;;;;;;18.25;11.30;;;;;;;4.44;100.00;103279.00;10147359;28;20039;-65
2022/03/22 06:15:45;;;;;;;20.38;12.05;;;;;;;4.52;100.00;103291.47;10137362;28;20094;-65
2022/03/22 06:20:42;;;;;;;20.02;12.02;;;;;;;4.60;100.00;103288.53;10156477;28;20074;-65
2022/03/22 06:25:40;;;;;;;18.20;11.32;;;;;;;4.76;100.00;103289.94;10154786;28;20050;-65
2022/03/22 06:30:37;;;;;;;24.30;11.02;;;;;;;4.79;99.68;103292.19;10159881;28;20077;-65
2022/03/22 06:35:34;;;;;;;16.90;11.18;;;;;;;4.97;100.00;103296.91;10167832;28;20081;-65
2022/03/22 06:40:34;;;;;;;16.20;10.82;;;;;;;5.12;96.01;103300.13;10155500;28;20086;-65
2022/03/22 06:45:31;;;;;;;18.48;12.05;;;;;;;5.33;98.48;103306.28;10150605;28;20497;-64
2022/03/22 06:50:28;;;;;;;19.75;11.63;;;;;;;5.35;100.00;103299.56;10155717;28;20050;-65
2022/03/22 06:55:24;;;;;;;17.58;11.45;;;;;;;5.56;94.12;103309.22;10146638;28;20500;-65
2022/03/22 07:00:28;;;;;;;21.13;12.85;;;;;;;5.67;99.81;103303.09;10115381;28;20131;-65
2022/03/22 07:05:26;;;;;;;22.33;12.30;;;;;;;5.83;87.24;103306.31;10133467;28;20121;-65
2022/03/22 07:10:23;;;;;;;18.95;11.70;;;;;;;5.89;85.60;103302.69;10154008;28;20467;-65
2022/03/22 07:15:33;;;;;;;23.00;13.38;;;;;;;6.06;80.66;103311.97;10153872;28;20130;-65
2022/03/22 07:20:29;;;;;;;22.70;12.07;;;;;;;6.15;81.92;103317.09;10132588;28;20109;-65
2022/03/22 07:25:28;;;;;;;21.35;12.50;;;;;;;6.29;80.47;103315.94;10153149;28;20488;-65
2022/03/22 07:30:24;;;;;;;23.92;12.32;;;;;;;6.30;80.00;103315.69;10153786;28;20081;-65
2022/03/22 07:35:22;;;;;;;26.20;13.80;;;;;;;6.48;76.54;103314.06;10146613;28;20060;-64
2022/03/22 07:40:19;;;;;;;21.60;13.27;;;;;;;6.62;66.05;103320.16;10149683;28;20047;-64
2022/03/22 07:45:19;;;;;;;21.00;13.40;;;;;;;6.68;70.75;103313.81;10130858;28;20105;-65
2022/03/22 07:55:42;;;;;;;24.00;14.07;;;;;;;6.91;80.30;103319.34;10151550;28;20046;-65
2022/03/22 08:00:41;;;;;;;23.27;13.43;;;;;;;6.97;70.62;103316.81;10152904;28;20050;-65
2022/03/22 08:05:39;;;;;;;24.95;13.88;;;;;;;7.13;66.06;103321.59;10147087;28;20070;-65
2022/03/22 08:10:35;;;;;;;24.90;14.60;;;;;;;7.28;59.90;103330.16;10166655;28;20129;-64
2022/03/22 08:15:32;;;;;;;23.77;13.27;;;;;;;7.45;59.54;103333.06;10149894;28;20089;-64
2022/03/22 08:20:30;;;;;;;21.38;13.02;;;;;;;7.56;60.27;103331.41;10152151;28;20145;-65
2022/03/22 08:25:29;;;;;;;18.27;12.27;;;;;;;7.75;56.42;103330.28;10150150;28;20042;-65
2022/03/22 08:30:27;;;;;;;24.42;13.82;;;;;;;7.91;55.77;103338.81;10152254;28;20046;-65
2022/03/22 08:35:24;;;;;;;21.48;12.45;;;;;;;8.07;54.39;103335.38;10150495;28;20042;-65
2022/03/22 08:40:21;;;;;;;21.98;13.32;;;;;;;8.27;53.78;103336.94;10151836;28;20133;-65
2022/03/22 08:45:22;;;;;;;21.92;13.80;;;;;;;8.47;52.70;103331.97;10150133;28;20493;-65
2022/03/22 08:50:21;;;;;;;17.55;11.73;;;;;;;8.66;51.32;103329.91;10125626;28;20054;-65
2022/03/22 08:55:18;;;;;;;20.48;13.75;;;;;;;8.84;50.77;103335.19;10128750;28;20459;-65
2022/03/22 09:00:17;;;;;;;22.17;13.00;;;;;;;9.13;50.28;103335.19;10151019;28;20494;-65
2022/03/22 09:10:29;;;;;;;17.67;11.68;;;;;;;9.64;50.17;103329.81;10129089;28;20104;-66
2022/03/22 09:15:28;;;;;;;22.15;11.98;;;;;;;9.91;47.22;103330.00;10148397;28;20058;-65
2022/03/22 09:20:32;;;;;;;21.30;13.13;;;;;;;10.06;47.00;103332.13;10150150;28;20100;-65
2022/03/22 09:25:29;;;;;;;20.92;13.55;;;;;;;10.22;50.24;103314.88;10149227;28;20453;-65
2022/03/22 09:30:27;;;;;;;22.55;13.10;;;;;;;10.42;49.13;103316.25;10149641;28;20069;-65
2022/03/22 09:35:24;;;;;;;17.23;12.25;;;;;;;10.63;50.60;103307.25;10149171;28;20493;-65
2022/03/22 09:40:22;;;;;;;20.35;13.13;;;;;;;10.76;47.68;103303.25;10150067;28;20768;-65
2022/03/22 09:45:24;;;;;;;19.88;13.27;;;;;;;11.09;49.09;103302.28;10149317;28;20547;-65
2022/03/22 09:51:44;;;;;;;21.15;13.23;;;;;;;11.28;45.10;103305.47;10150798;28;20468;-67
2022/03/22 09:55:38;;;;;;;19.00;12.77;;;;;;;11.58;46.88;103304.91;10148485;28;20050;-65
2022/03/22 10:00:34;;;;;;;21.80;14.75;;;;;;;11.82;44.59;103292.75;10149961;28;20046;-65
2022/03/22 10:05:31;;;;;;;18.65;12.45;;;;;;;12.04;45.78;103289.91;10148499;28;20046;-65
2022/03/22 10:10:28;;;;;;;22.05;13.50;;;;;;;12.22;41.75;103294.94;10149814;28;20109;-65
2022/03/22 10:15:33;;;;;;;18.02;12.52;;;;;;;12.53;42.80;103292.34;10143715;28;20050;-65
2022/03/22 10:20:39;;;;;;;19.80;12.63;;;;;;;12.76;41.89;103280.88;10110420;28;20046;-65
2022/03/22 10:25:41;;;;;;;19.83;12.93;;;;;;;13.18;42.33;103282.66;10122584;28;20054;-65
2022/03/22 10:30:38;;;;;;;18.88;12.50;;;;;;;13.52;40.23;103279.38;10149000;28;20096;-65
2022/03/22 10:35:36;;;;;;;20.90;13.38;;;;;;;13.86;38.87;103284.31;10148007;28;20074;-65
2022/03/22 10:40:34;;;;;;;19.90;13.02;;;;;;;14.30;38.55;103269.88;10154853;28;20066;-65
2022/03/22 10:46:00;;;;;;;23.73;12.55;;;;;;;14.66;39.66;103278.00;10134511;28;20042;-64
2022/03/22 10:51:00;;;;;;;20.92;12.10;;;;;;;14.88;36.77;103275.69;10155154;28;20061;-64
2022/03/22 10:55:58;;;;;;;17.25;12.90;;;;;;;14.90;36.01;103278.97;10154343;28;20113;-64
2022/03/22 11:00:56;;;;;;;17.50;12.65;;;;;;;15.12;35.73;103283.22;10117613;28;20047;-65
2022/03/22 11:05:55;;;;;;;20.35;13.90;;;;;;;15.72;35.86;103272.03;10136047;28;20101;-64
2022/03/22 11:10:54;;;;;;;21.65;12.98;;;;;;;16.31;34.32;103275.50;10155310;28;20046;-64
2022/03/22 11:15:51;;;;;;;21.15;14.10;;;;;;;16.36;32.36;103264.38;10149816;28;20189;-64
2022/03/22 11:21:00;;;;;;;19.15;13.35;;;;;;;16.72;32.99;103266.69;10154910;28;20531;-64
2022/03/22 11:26:23;;;;;;;16.58;12.73;;;;;;;17.04;32.79;103258.50;10142003;28;20043;-64
2022/03/22 11:31:26;;;;;;;21.73;13.18;;;;;;;17.10;32.46;103245.41;10143781;28;20078;-64
2022/03/22 11:36:29;;;;;;;18.63;12.02;;;;;;;17.41;33.98;103248.50;10152911;28;20133;-64
2022/03/22 11:47:09;;;;;;;18.05;11.88;;;;;;;18.28;31.08;103241.31;10152281;28;20062;-64
2022/03/22 11:52:13;;;;;;;14.35;11.00;;;;;;;18.70;28.74;103235.69;10152962;28;20057;-64
2022/03/22 11:57:16;;;;;;;20.33;12.50;;;;;;;18.98;28.32;103236.44;10151867;28;20085;-64
2022/03/22 12:02:19;;;;;;;17.20;11.38;;;;;;;19.17;26.73;103246.53;10114168;28;20078;-64
2022/03/22 12:07:27;;;;;;;17.20;11.35;;;;;;;19.74;26.52;103235.63;10144780;28;20066;-64
2022/03/22 12:12:23;;;;;;;15.80;11.20;;;;;;;20.18;26.00;103229.09;10152759;28;20415;-64
2022/03/22 12:17:20;;;;;;;13.82;10.88;;;;;;;20.72;25.46;103220.50;10137654;28;20077;-64
2022/03/22 12:22:17;;;;;;;17.08;11.27;;;;;;;21.37;24.69;103212.25;10112922;28;20038;-64
2022/03/22 12:27:13;;;;;;;16.98;10.77;;;;;;;21.73;23.11;103208.25;10144058;28;20134;-64
2022/03/22 12:32:19;;;;;;;16.15;10.13;;;;;;;22.13;22.67;103205.06;10152078;28;20120;-64
2022/03/22 12:37:17;;;;;;;14.45;9.80;;;;;;;22.71;23.50;103197.78;10131497;28;20042;-64
2022/03/22 12:42:16;;;;;;;14.98;10.82;;;;;;;22.77;23.35;103193.63;10151303;28;20625;-64
2022/03/22 12:47:12;;;;;;;15.13;10.85;;;;;;;22.84;22.18;103191.09;10149802;28;20575;-64
2022/03/22 12:52:09;;;;;;;14.52;10.48;;;;;;;23.46;22.66;103182.91;10151421;28;20081;-64
2022/03/22 12:57:11;;;;;;;18.08;11.27;;;;;;;23.75;21.92;103186.69;10142442;28;20628;-65
2022/03/22 13:02:10;;;;;;;16.67;10.73;;;;;;;24.34;23.01;103183.34;10150375;28;20042;-64
2022/03/22 13:07:08;;;;;;;17.60;11.00;;;;;;;24.49;23.24;103174.25;10147789;28;20427;-64
2022/03/22 13:12:15;;;;;;;17.48;10.68;;;;;;;25.25;21.24;103170.75;10139592;28;20631;-64
2022/03/22 13:17:16;;;;;;;16.58;10.13;;;;;;;25.69;21.47;103168.69;10142597;28;20116;-64
2022/03/22 13:22:21;;;;;;;13.45;9.88;;;;;;;25.97;22.66;103159.31;10149751;28;20055;-64
2022/03/22 13:27:23;;;;;;;13.70;10.13;;;;;;;26.34;21.21;103153.31;10148838;28;20496;-64
2022/03/22 13:32:28;;;;;;;17.60;11.00;;;;;;;26.42;21.22;103152.31;10149698;28;20097;-65
2022/03/22 13:37:25;;;;;;;12.85;9.95;;;;;;;26.61;19.44;103152.31;10148130;28;20632;-65
2022/03/22 13:42:22;;;;;;;14.73;10.23;;;;;;;26.69;19.43;103144.03;10150236;28;20581;-65
2022/03/22 13:47:35;;;;;;;14.45;10.45;;;;;;;26.89;20.09;103142.81;10147799;28;20495;-65
2022/03/22 13:52:32;;;;;;;16.15;10.10;;;;;;;26.98;20.92;103137.78;10150097;28;20791;-65
2022/03/22 13:57:36;;;;;;;12.80;8.75;;;;;;;27.29;20.63;103141.53;10147606;28;20054;-65
2022/03/22 14:02:33;;;;;;;14.02;8.45;;;;;;;27.00;18.06;103135.41;10149253;28;20054;-65
2022/03/22 14:07:30;;;;;;;13.52;8.05;;;;;;;26.55;18.46;103136.97;10145350;28;20109;-65
2022/03/22 14:12:26;;;;;;;15.73;9.60;;;;;;;26.05;18.64;103123.88;10142447;28;20046;-65
2022/03/22 14:17:23;;;;;;;12.73;8.35;;;;;;;25.94;18.16;103132.03;10150703;28;20046;-65
2022/03/22 14:22:20;;;;;;;11.88;7.57;;;;;;;25.93;18.41;103127.63;10156634;28;20125;-65
2022/03/22 14:27:18;;;;;;;11.85;8.30;;;;;;;25.92;18.36;103128.78;10154974;28;20105;-65
2022/03/22 14:32:15;;;;;;;14.68;7.72;;;;;;;26.21;18.57;103122.63;10156087;28;20046;-65
2022/03/22 14:37:12;;;;;;;13.30;8.60;;;;;;;26.24;18.71;103113.47;10154527;28;20493;-65
2022/03/22 14:42:10;;;;;;;12.05;9.30;;;;;;;26.22;19.55;103112.22;10122527;28;20421;-65
2022/03/22 14:47:07;;;;;;;12.73;7.95;;;;;;;25.97;18.77;103117.28;10133469;28;20097;-65
2022/03/22 15:02:40;;;;;;;11.55;7.95;;;;;;;25.97;18.91;103095.69;10155494;28;20043;-65
2022/03/22 15:07:37;;;;;;;11.82;8.00;;;;;;;26.11;17.37;103095.19;10152717;28;20042;-65
2022/03/22 15:12:34;;;;;;;15.38;9.23;;;;;;;25.97;19.27;103092.06;10154966;28;20085;-66
2022/03/22 15:17:30;;;;;;;14.43;8.85;;;;;;;25.36;19.01;103088.63;10153104;28;20081;-66
2022/03/22 15:22:27;;;;;;;10.85;7.85;;;;;;;24.55;19.66;103088.09;10154220;28;20070;-65
2022/03/22 15:27:24;;;;;;;12.57;8.25;;;;;;;23.73;18.75;103092.84;10152740;28;20556;-65
2022/03/22 15:32:20;;;;;;;15.65;9.10;;;;;;;23.64;19.24;103078.19;10138821;28;20082;-65
2022/03/22 15:37:17;;;;;;;12.55;8.60;;;;;;;23.81;21.08;103076.34;10147317;28;20504;-65
2022/03/22 15:42:14;;;;;;;14.70;7.93;;;;;;;23.98;20.01;103076.09;10153729;28;20042;-65
2022/03/22 15:47:10;;;;;;;11.63;6.30;;;;;;;23.98;21.29;103076.09;10151810;28;20073;-65
2022/03/22 15:52:07;;;;;;;12.40;6.90;;;;;;;23.96;21.42;103067.22;10136344;28;20046;-66
2022/03/22 15:57:06;;;;;;;12.90;8.23;;;;;;;24.09;18.86;103071.63;10133961;28;20820;-65
2022/03/22 16:02:03;;;;;;;13.30;7.05;;;;;;;24.24;21.35;103072.03;10152987;28;20054;-65
2022/03/22 16:07:00;;;;;;;14.40;6.80;;;;;;;24.36;21.62;103066.38;10138028;28;20050;-65
2022/03/22 16:11:57;;;;;;;12.80;7.10;;;;;;;24.28;21.87;103067.38;10140150;28;20397;-66
2022/03/22 16:16:54;;;;;;;11.93;6.50;;;;;;;24.05;22.50;103073.50;10141298;28;20129;-69
2022/03/22 16:21:55;;;;;;;11.32;8.18;;;;;;;23.73;21.18;103076.09;10146207;28;20551;-69
2022/03/22 16:26:52;;;;;;;13.02;7.13;;;;;;;23.41;23.22;103069.50;10147174;28;20096;-64
2022/03/22 16:31:49;;;;;;;17.98;8.75;;;;;;;22.89;23.60;103079.31;10145827;28;20050;-65
2022/03/22 16:36:47;;;;;;;14.63;10.10;;;;;;;22.43;23.69;103081.25;10143564;28;20081;-65
2022/03/22 16:41:44;;;;;;;14.98;9.88;;;;;;;21.85;25.08;103071.88;10146609;28;20050;-64
2022/03/22 16:46:40;;;;;;;14.40;9.32;;;;;;;21.35;26.15;103070.69;10148674;28;20170;-65
2022/03/22 16:51:39;;;;;;;14.60;9.43;;;;;;;20.87;25.89;103076.59;10150082;28;20566;-65
2022/03/22 16:56:35;;;;;;;14.73;9.70;;;;;;;20.44;27.66;103074.69;10147573;28;20082;-65
2022/03/22 17:01:32;;;;;;;14.48;9.23;;;;;;;20.02;27.00;103071.59;10117527;28;20154;-65
2022/03/22 17:06:30;;;;;;;17.50;9.57;;;;;;;19.62;28.44;103069.69;10137680;28;20050;-65
2022/03/22 17:11:28;;;;;;;15.40;8.77;;;;;;;19.30;30.29;103084.78;10143757;28;20054;-65
2022/03/22 17:16:26;;;;;;;14.75;9.38;;;;;;;18.98;29.79;103081.19;10124135;28;20468;-66
2022/03/22 17:21:23;;;;;;;14.65;9.30;;;;;;;18.63;31.93;103092.03;10165511;28;20116;-66
2022/03/22 17:26:21;;;;;;;17.58;10.63;;;;;;;18.23;31.83;103094.66;10157431;28;20061;-66
2022/03/22 17:31:20;;;;;;;16.95;10.38;;;;;;;17.96;32.73;103091.97;10136203;28;20042;-66
2022/03/22 17:36:19;;;;;;;14.10;9.75;;;;;;;17.60;33.25;103098.25;10136649;28;20046;-66
2022/03/22 17:41:16;;;;;;;17.60;9.68;;;;;;;17.31;34.45;103099.34;10133126;28;20390;-66
2022/03/22 17:46:13;;;;;;;14.85;9.50;;;;;;;16.99;34.46;103101.06;10113795;28;20058;-66
2022/03/22 17:51:11;;;;;;;17.17;9.63;;;;;;;16.82;34.76;103098.03;10145532;28;20161;-66
2022/03/22 17:56:09;;;;;;;17.08;11.15;;;;;;;16.66;36.37;103102.13;10131789;28;20540;-65
2022/03/22 18:01:05;;;;;;;19.85;10.75;;;;;;;16.39;35.82;103109.19;10147197;28;20046;-65
2022/03/22 18:06:02;;;;;;;20.35;10.93;;;;;;;16.14;36.57;103104.88;10140518;28;20154;-65
2022/03/22 18:16:13;;;;;;;17.38;10.70;;;;;;;15.67;37.12;103109.31;10135933;28;20134;-65
2022/03/22 18:21:30;;;;;;;20.55;10.45;;;;;;;15.49;35.71;103119.19;10148977;28;20077;-65
2022/03/22 18:26:27;;;;;;;17.48;10.98;;;;;;;15.32;36.58;103120.47;10142159;28;20497;-65
2022/03/22 18:31:26;;;;;;;17.45;10.30;;;;;;;15.10;36.86;103122.88;10151245;28;20133;-65
2022/03/22 18:36:23;;;;;;;15.75;10.65;;;;;;;14.95;36.83;103126.63;10117372;28;20062;-65
2022/03/22 18:41:20;;;;;;;16.08;9.80;;;;;;;14.82;37.10;103128.09;10155670;28;20433;-65
2022/03/22 18:46:16;;;;;;;17.38;9.65;;;;;;;14.67;36.97;103119.97;10146645;28;20413;-65
2022/03/22 18:51:14;;;;;;;17.02;11.30;;;;;;;14.46;36.73;103125.56;10149584;28;20070;-65
2022/03/22 18:56:12;;;;;;;20.52;11.55;;;;;;;14.31;39.38;103122.91;10152268;28;20592;-65
2022/03/22 19:01:10;;;;;;;20.75;12.18;;;;;;;14.14;38.53;103122.47;10155349;28;20054;-66
2022/03/22 19:06:07;;;;;;;21.67;12.20;;;;;;;13.92;37.99;103129.16;10149662;28;20109;-65
2022/03/22 19:11:11;;;;;;;25.45;12.32;;;;;;;13.79;39.44;103144.34;10150271;28;20133;-65
2022/03/22 19:21:25;;;;;;;23.98;13.27;;;;;;;13.43;40.40;103143.63;10136687;28;20065;-65
2022/03/22 19:26:24;;;;;;;25.63;14.07;;;;;;;13.34;40.42;103142.53;10137457;28;20055;-65
2022/03/22 19:36:40;;;;;;;24.50;14.23;;;;;;;13.04;42.01;103144.19;10143115;28;20424;-65
2022/03/22 19:41:36;;;;;;;25.80;13.40;;;;;;;12.89;42.89;103145.03;10131256;28;20181;-65
2022/03/22 19:46:33;;;;;;;27.77;13.57;;;;;;;12.73;43.68;103146.94;10119123;28;20054;-65
2022/03/22 19:51:29;;;;;;;25.50;13.93;;;;;;;12.63;43.99;103149.69;10142294;28;20884;-64
2022/03/22 19:56:26;;;;;;;26.73;15.05;;;;;;;12.51;44.74;103149.09;10145402;28;20077;-65
2022/03/22 20:01:22;;;;;;;22.83;14.65;;;;;;;12.39;45.83;103150.19;10139142;28;20082;-64
2022/03/22 20:06:19;;;;;;;24.48;14.95;;;;;;;12.26;46.28;103144.41;10139863;28;20137;-64
2022/03/22 20:11:16;;;;;;;25.45;14.93;;;;;;;12.06;46.65;103156.09;10131665;28;20053;-64
2022/03/22 20:16:13;;;;;;;28.85;16.55;;;;;;;11.86;48.18;103157.66;10118559;28;20046;-64
2022/03/22 20:21:09;;;;;;;31.10;15.18;;;;;;;11.86;46.80;103152.16;10137010;28;20141;-64
2022/03/22 20:26:08;;;;;;;26.52;15.98;;;;;;;11.71;47.06;103149.34;10143048;28;20067;-64
2022/03/22 20:31:05;;;;;;;28.20;16.23;;;;;;;11.54;46.96;103163.22;10137978;28;20133;-64
2022/03/22 20:36:03;;;;;;;27.02;15.48;;;;;;;11.49;48.31;103158.53;10149148;28;20389;-63
2022/03/22 20:40:59;;;;;;;27.55;16.23;;;;;;;11.49;46.87;103155.81;10144619;28;20129;-63
2022/03/22 20:45:56;;;;;;;26.30;15.73;;;;;;;11.41;48.67;103161.75;10149310;28;20074;-64
2022/03/22 20:50:53;;;;;;;22.95;14.57;;;;;;;11.28;48.55;103157.59;10142654;28;20149;-64
2022/03/22 21:01:04;;;;;;;30.00;15.48;;;;;;;11.04;48.98;103168.06;10145656;28;20077;-64
2022/03/22 21:06:01;;;;;;;26.83;15.95;;;;;;;10.95;51.01;103165.00;10140102;28;20519;-64
2022/03/22 21:10:57;;;;;;;25.73;15.55;;;;;;;10.78;52.32;103166.19;10144695;28;20068;-64
2022/03/22 21:15:54;;;;;;;26.27;16.35;;;;;;;10.71;54.67;103172.69;10117696;28;20112;-64
2022/03/22 21:20:50;;;;;;;35.00;16.85;;;;;;;10.55;54.11;103170.88;10136520;28;20048;-64
2022/03/22 21:25:47;;;;;;;28.40;16.33;;;;;;;10.48;53.22;103159.31;10143469;28;20065;-64
2022/03/22 21:30:43;;;;;;;27.48;16.33;;;;;;;10.38;55.42;103161.97;10145740;28;20074;-64
2022/03/22 21:35:40;;;;;;;32.92;16.17;;;;;;;10.25;57.43;103166.69;10122498;28;20050;-64
2022/03/22 21:40:38;;;;;;;27.13;15.88;;;;;;;10.15;60.64;103166.59;10143196;28;20081;-64
2022/03/22 21:45:35;;;;;;;27.20;16.65;;;;;;;10.03;60.77;103163.16;10141288;28;20061;-64
2022/03/22 21:50:32;;;;;;;25.17;15.73;;;;;;;10.00;62.62;103159.03;10145374;28;20555;-64
2022/03/22 21:55:30;;;;;;;25.83;15.30;;;;;;;9.94;63.09;103164.69;10140036;28;20050;-64
2022/03/22 22:00:26;;;;;;;25.40;16.08;;;;;;;9.85;62.14;103162.38;10130557;28;20042;-64
2022/03/22 22:05:24;;;;;;;26.05;16.20;;;;;;;9.78;64.95;103156.28;10141410;28;20213;-64
2022/03/22 22:10:20;;;;;;;27.58;15.50;;;;;;;9.68;62.68;103156.97;10147066;28;20619;-64
2022/03/22 22:15:17;;;;;;;24.25;14.73;;;;;;;9.58;63.27;103156.81;10146888;28;20073;-65
2022/03/22 22:20:16;;;;;;;30.88;15.38;;;;;;;9.50;64.01;103159.16;10146341;28;20047;-64
2022/03/22 22:25:13;;;;;;;24.33;15.43;;;;;;;9.42;66.58;103146.75;10136771;28;20397;-64
2022/03/22 22:30:10;;;;;;;24.90;16.10;;;;;;;9.30;68.10;103138.66;10146442;28;20082;-64
2022/03/22 22:35:07;;;;;;;25.92;15.63;;;;;;;9.27;69.85;103144.63;10146885;28;20081;-65
2022/03/22 22:40:04;;;;;;;30.98;15.82;;;;;;;9.19;69.43;103139.56;10153103;28;20113;-65
2022/03/22 22:45:05;;;;;;;29.33;15.02;;;;;;;9.06;70.08;103138.84;10154332;28;20475;-64
2022/03/22 22:50:02;;;;;;;27.13;16.15;;;;;;;9.00;70.87;103136.28;10152201;28;20069;-65
2022/03/22 22:55:02;;;;;;;30.42;17.90;;;;;;;8.86;72.13;103143.94;10151205;28;20074;-64
2022/03/22 22:59:59;;;;;;;24.63;15.27;;;;;;;8.81;71.44;103146.59;10150519;28;20078;-71
2022/03/22 23:04:56;;;;;;;25.42;14.40;;;;;;;8.69;70.45;103137.66;10151952;28;20042;-67
2022/03/22 23:10:09;;;;;;;24.13;15.02;;;;;;;8.63;76.20;103140.31;10144064;28;20049;-67
2022/03/22 23:15:07;;;;;;;28.13;16.60;;;;;;;8.56;76.80;103139.63;10149442;28;20810;-67
2022/03/22 23:20:04;;;;;;;27.60;16.05;;;;;;;8.47;80.01;103148.44;10153240;28;20058;-67
2022/03/22 23:25:01;;;;;;;28.00;16.15;;;;;;;8.33;81.63;103142.41;10152212;28;20050;-67
2022/03/22 23:29:57;;;;;;;26.92;16.30;;;;;;;8.26;81.61;103144.47;10110611;28;20046;-67
2022/03/22 23:34:54;;;;;;;26.30;15.85;;;;;;;8.17;81.70;103142.13;10104889;28;20462;-67
2022/03/22 23:39:50;;;;;;;25.85;16.40;;;;;;;8.07;83.72;103136.47;10109305;28;20074;-67
2022/03/22 23:44:47;;;;;;;27.88;16.33;;;;;;;7.95;83.40;103138.41;10111241;28;20105;-67